createdAt,value
2022-09-23T00:02:02.304Z,101794.84
2022-09-23T00:04:50.492Z,101786.03
2022-09-23T00:07:38.689Z,101779.88
2022-09-23T00:10:27.085Z,101790.28
2022-09-23T00:13:13.810Z,101785.00
2022-09-23T00:16:04.062Z,101773.59
2022-09-23T00:18:51.592Z,101777.91
2022-09-23T00:21:39.568Z,101778.75
2022-09-23T00:24:26.591Z,101780.44
2022-09-23T00:27:13.567Z,101780.47
2022-09-23T00:30:00.521Z,101775.16
2022-09-23T00:32:46.933Z,101780.38
2022-09-23T00:35:33.699Z,101768.94
2022-09-23T00:38:21.814Z,101774.16
2022-09-23T00:41:08.565Z,101775.88
2022-09-23T00:43:57.655Z,101768.88
2022-09-23T00:46:44.585Z,101765.38
2022-09-23T00:49:31.977Z,101761.88
2022-09-23T00:52:24.144Z,101752.28
2022-09-23T00:55:17.538Z,101757.47
2022-09-23T00:58:06.158Z,101754.84
2022-09-23T01:00:53.384Z,101750.50
2022-09-23T01:03:39.842Z,101753.25
2022-09-23T01:06:26.568Z,101751.56
2022-09-23T01:09:13.399Z,101745.38
2022-09-23T01:12:18.703Z,101752.41
2022-09-23T01:15:14.048Z,101743.56
2022-09-23T01:18:08.640Z,101745.31
2022-09-23T01:21:10.905Z,101730.44
2022-09-23T01:24:26.312Z,101731.25
2022-09-23T01:27:25.889Z,101729.50
2022-09-23T01:30:45.201Z,101732.06
2022-09-23T01:33:40.661Z,101726.81
2022-09-23T01:36:32.283Z,101726.66
2022-09-23T01:39:26.526Z,101726.66
2022-09-23T01:42:18.927Z,101721.34
2022-09-23T01:45:13.131Z,101716.16
2022-09-23T01:48:10.378Z,101720.50
2022-09-23T01:51:05.841Z,101714.34
2022-09-23T01:53:59.060Z,101719.53
2022-09-23T01:56:52.497Z,101711.59
2022-09-23T01:59:42.374Z,101713.31
2022-09-23T02:02:33.909Z,101713.31
2022-09-23T02:05:25.265Z,101708.97
2022-09-23T02:08:16.933Z,101710.69
2022-09-23T02:11:07.942Z,101708.88
2022-09-23T02:13:57.496Z,101709.72
2022-09-23T02:16:48.613Z,101706.16
2022-09-23T02:19:40.616Z,101698.19
2022-09-23T02:22:31.030Z,101699.06
2022-09-23T02:25:19.940Z,101699.91
2022-09-23T02:28:13.799Z,101699.00
2022-09-23T02:31:17.471Z,101697.22
2022-09-23T02:34:18.188Z,101691.13
2022-09-23T02:37:11.660Z,101691.94
2022-09-23T02:40:03.088Z,101684.06
2022-09-23T02:43:00.235Z,101689.31
2022-09-23T02:45:47.311Z,101686.66
2022-09-23T02:48:37.356Z,101677.91
2022-09-23T02:51:25.862Z,101679.59
2022-09-23T02:54:15.721Z,101672.59
2022-09-23T02:57:05.605Z,101680.44
2022-09-23T02:59:54.273Z,101671.72
2022-09-23T03:03:17.334Z,101672.59
2022-09-23T03:06:16.356Z,101672.59
2022-09-23T03:09:05.958Z,101661.25
2022-09-23T03:12:06.624Z,101662.81
2022-09-23T03:14:59.866Z,101662.75
2022-09-23T03:17:54.465Z,101656.53
2022-09-23T03:20:45.368Z,101646.81
2022-09-23T03:23:36.821Z,101647.72
2022-09-23T03:26:28.673Z,101648.53
2022-09-23T03:29:18.011Z,101648.47
2022-09-23T03:32:08.346Z,101650.25
2022-09-23T03:34:58.748Z,101647.66
2022-09-23T03:37:54.317Z,101646.91
2022-09-23T03:40:44.648Z,101636.47
2022-09-23T03:43:35.280Z,101636.38
2022-09-23T03:46:27.506Z,101636.38
2022-09-23T03:49:17.629Z,101632.00
2022-09-23T03:52:04.875Z,101629.38
2022-09-23T03:54:52.322Z,101624.09
2022-09-23T03:57:39.744Z,101632.84
2022-09-23T04:00:26.213Z,101628.50
2022-09-23T04:03:12.972Z,101628.47
2022-09-23T04:06:01.170Z,101618.78
2022-09-23T04:08:47.962Z,101624.94
2022-09-23T04:11:34.941Z,101620.53
2022-09-23T04:14:23.209Z,101608.25
2022-09-23T04:17:10.460Z,101614.50
2022-09-23T04:19:57.339Z,101607.50
2022-09-23T04:22:45.410Z,101610.06
2022-09-23T04:25:32.327Z,101602.09
2022-09-23T04:28:18.810Z,101608.09
2022-09-23T04:31:06.164Z,101608.16
2022-09-23T04:33:54.249Z,101603.91
2022-09-23T04:36:41.242Z,101605.66
2022-09-23T04:39:29.329Z,101612.72
2022-09-23T04:42:15.801Z,101601.34
2022-09-23T04:45:02.800Z,101603.13
2022-09-23T04:47:49.630Z,101603.97
2022-09-23T04:50:36.548Z,101596.00
2022-09-23T04:53:23.117Z,101608.16
2022-09-23T04:56:12.587Z,101592.31
2022-09-23T04:59:01.861Z,101597.53
2022-09-23T05:01:48.464Z,101588.66
2022-09-23T05:04:37.021Z,101599.25
2022-09-23T05:07:23.499Z,101594.91
2022-09-23T05:10:10.208Z,101597.53
2022-09-23T05:13:00.222Z,101594.88
2022-09-23T05:15:46.798Z,101595.88
2022-09-23T05:18:34.153Z,101595.91
2022-09-23T05:21:22.477Z,101603.03
2022-09-23T05:24:09.885Z,101595.28
2022-09-23T05:26:56.737Z,101597.09
2022-09-23T05:29:45.197Z,101593.69
2022-09-23T05:32:31.818Z,101585.97
2022-09-23T05:35:18.431Z,101595.50
2022-09-23T05:38:05.228Z,101594.72
2022-09-23T05:40:56.825Z,101593.94
2022-09-23T05:43:43.508Z,101584.47
2022-09-23T05:46:33.251Z,101583.66
2022-09-23T05:49:20.033Z,101588.16
2022-09-23T05:52:06.728Z,101585.66
2022-09-23T05:54:53.865Z,101591.88
2022-09-23T05:57:40.466Z,101584.25
2022-09-23T06:00:27.049Z,101590.53
2022-09-23T06:03:16.367Z,101584.66
2022-09-23T06:06:03.078Z,101590.00
2022-09-23T06:08:50.174Z,101588.34
2022-09-23T06:11:37.421Z,101585.81
2022-09-23T06:14:24.003Z,101585.88
2022-09-23T06:17:10.749Z,101588.56
2022-09-23T06:19:58.969Z,101593.91
2022-09-23T06:22:45.556Z,101593.09
2022-09-23T06:25:33.379Z,101592.34
2022-09-23T06:28:20.441Z,101592.41
2022-09-23T06:31:13.128Z,101590.78
2022-09-23T06:34:11.094Z,101584.72
2022-09-23T06:37:09.387Z,101590.94
2022-09-23T06:40:01.323Z,101594.50
2022-09-23T06:42:52.284Z,101591.06
2022-09-23T06:45:39.030Z,101590.28
2022-09-23T06:48:26.332Z,101588.59
2022-09-23T06:51:19.189Z,101585.06
2022-09-23T06:54:07.457Z,101589.47
2022-09-23T06:56:54.101Z,101590.38
2022-09-23T06:59:41.316Z,101588.63
2022-09-23T07:02:28.189Z,101588.69
2022-09-23T07:05:15.782Z,101580.81
2022-09-23T07:08:03.393Z,101587.00
2022-09-23T07:10:54.130Z,101587.84
2022-09-23T07:13:42.357Z,101598.34
2022-09-23T07:16:28.944Z,101597.47
2022-09-23T07:19:15.575Z,101602.69
2022-09-23T07:22:02.449Z,101591.16
2022-09-23T07:24:49.344Z,101603.41
2022-09-23T07:27:37.472Z,101598.91
2022-09-23T07:30:25.643Z,101603.25
2022-09-23T07:33:28.028Z,101593.44
2022-09-23T07:36:18.803Z,101599.50
2022-09-23T07:39:05.859Z,101597.63
2022-09-23T07:41:52.417Z,101588.63
2022-09-23T07:44:42.134Z,101591.94
2022-09-23T07:47:28.708Z,101583.69
2022-09-23T07:50:15.367Z,101591.31
2022-09-23T07:53:03.072Z,101581.50
2022-09-23T07:55:53.925Z,101581.88
2022-09-23T07:58:40.808Z,101583.91
2022-09-23T08:01:34.977Z,101581.66
2022-09-23T08:04:26.034Z,101583.75
2022-09-23T08:07:14.530Z,101580.56
2022-09-23T08:10:01.957Z,101583.16
2022-09-23T08:12:48.990Z,101586.50
2022-09-23T08:15:35.600Z,101588.03
2022-09-23T08:18:23.661Z,101578.50
2022-09-23T08:21:10.536Z,101577.44
2022-09-23T08:23:57.286Z,101582.44
2022-09-23T08:26:44.519Z,101577.66
2022-09-23T08:29:31.339Z,101578.25
2022-09-23T08:32:18.160Z,101571.44
2022-09-23T08:35:06.912Z,101577.66
2022-09-23T08:37:53.756Z,101570.22
2022-09-23T08:40:43.491Z,101564.09
2022-09-23T08:43:34.326Z,101555.13
2022-09-23T08:46:27.215Z,101560.44
2022-09-23T08:49:21.121Z,101556.16
2022-09-23T08:52:15.509Z,101555.19
2022-09-23T08:55:03.124Z,101548.44
2022-09-23T08:58:26.518Z,101558.84
2022-09-23T09:01:22.055Z,101543.59
2022-09-23T09:04:18.224Z,101548.31
2022-09-23T09:07:35.834Z,101546.84
2022-09-23T09:10:24.661Z,101544.56
2022-09-23T09:13:24.080Z,101537.06
2022-09-23T09:16:55.543Z,101540.31
2022-09-23T09:19:52.814Z,101535.72
2022-09-23T09:22:50.849Z,101534.53
2022-09-23T09:25:46.041Z,101529.63
2022-09-23T09:28:40.281Z,101528.56
2022-09-23T09:31:33.550Z,101513.22
2022-09-23T09:34:28.957Z,101530.16
2022-09-23T09:37:20.701Z,101527.00
2022-09-23T09:40:13.267Z,101523.97
2022-09-23T09:42:59.784Z,101525.19
2022-09-23T09:45:59.283Z,101526.31
2022-09-23T09:48:57.290Z,101520.78
2022-09-23T09:51:43.827Z,101518.66
2022-09-23T09:54:31.270Z,101509.56
2022-09-23T09:57:36.374Z,101507.72
2022-09-23T10:00:39.603Z,101506.47
2022-09-23T10:03:32.991Z,101499.03
2022-09-23T10:06:24.408Z,101495.09
2022-09-23T10:09:14.862Z,101490.03
2022-09-23T10:12:14.990Z,101494.91
2022-09-23T10:15:03.248Z,101496.16
2022-09-23T10:17:51.419Z,101497.91
2022-09-23T10:20:39.117Z,101485.19
2022-09-23T10:23:29.447Z,101484.59
2022-09-23T10:26:17.468Z,101489.38
2022-09-23T10:29:05.647Z,101486.28
2022-09-23T10:32:15.300Z,101482.44
2022-09-23T10:35:14.858Z,101482.16
2022-09-23T10:38:01.948Z,101482.16
2022-09-23T10:41:06.134Z,101474.09
2022-09-23T10:44:23.376Z,101477.56
2022-09-23T10:47:21.339Z,101476.69
2022-09-23T10:50:18.981Z,101479.63
2022-09-23T10:53:16.178Z,101474.16
2022-09-23T10:56:16.848Z,101472.88
2022-09-23T10:59:31.245Z,101467.34
2022-09-23T11:02:38.080Z,101459.78
2022-09-23T11:05:36.660Z,101460.97
2022-09-23T11:08:40.610Z,101448.25
2022-09-23T11:11:44.225Z,101461.75
2022-09-23T11:14:47.470Z,101459.00
2022-09-23T11:18:01.318Z,101447.13
2022-09-23T11:21:00.561Z,101452.16
2022-09-23T11:24:08.005Z,101448.22
2022-09-23T11:27:06.456Z,101439.31
2022-09-23T11:30:09.270Z,101430.50
2022-09-23T11:33:14.685Z,101423.16
2022-09-23T11:36:05.895Z,101431.31
2022-09-23T11:38:55.992Z,101422.56
2022-09-23T11:41:44.416Z,101422.66
2022-09-23T11:44:35.432Z,101410.22
2022-09-23T11:47:26.276Z,101416.78
2022-09-23T11:50:20.260Z,101415.16
2022-09-23T11:53:14.202Z,101404.34
2022-09-23T11:56:07.241Z,101397.53
2022-09-23T11:59:02.369Z,101385.03
2022-09-23T12:01:54.190Z,101391.78
2022-09-23T12:04:55.258Z,101391.19
2022-09-23T12:07:56.721Z,101383.13
2022-09-23T12:10:50.753Z,101375.09
2022-09-23T12:13:49.467Z,101378.69
2022-09-23T12:17:08.247Z,101375.91
2022-09-23T12:20:14.343Z,101371.22
2022-09-23T12:23:15.168Z,101371.97
2022-09-23T12:26:04.815Z,101365.75
2022-09-23T12:28:55.883Z,101364.28
2022-09-23T12:31:46.773Z,101358.00
2022-09-23T12:34:41.153Z,101364.47
2022-09-23T12:37:32.846Z,101360.41
2022-09-23T12:40:28.498Z,101358.53
2022-09-23T12:43:20.093Z,101342.84
2022-09-23T12:46:25.694Z,101339.19
2022-09-23T12:49:26.237Z,101344.19
2022-09-23T12:52:26.659Z,101347.94
2022-09-23T12:55:51.672Z,101346.00
2022-09-23T12:58:39.548Z,101342.50
2022-09-23T13:01:27.862Z,101328.22
2022-09-23T13:04:50.449Z,101327.41
2022-09-23T13:07:43.889Z,101326.06
2022-09-23T13:10:33.871Z,101320.19
2022-09-23T13:13:25.940Z,101316.41
2022-09-23T13:16:15.655Z,101316.25
2022-09-23T13:19:03.582Z,101310.25
2022-09-23T13:22:10.848Z,101301.75
2022-09-23T13:25:03.941Z,101301.59
2022-09-23T13:27:53.527Z,101299.84
2022-09-23T13:30:52.312Z,101283.88
2022-09-23T13:33:45.020Z,101288.16
2022-09-23T13:36:43.707Z,101280.34
2022-09-23T13:39:30.385Z,101282.97
2022-09-23T13:42:30.703Z,101277.16
2022-09-23T13:45:19.856Z,101276.63
2022-09-23T13:48:12.674Z,101274.34
2022-09-23T13:50:59.276Z,101263.91
2022-09-23T13:53:53.539Z,101272.28
2022-09-23T13:56:50.494Z,101258.50
2022-09-23T13:59:39.276Z,101206.06
2022-09-23T14:02:25.988Z,101248.56
2022-09-23T14:05:22.476Z,101247.34
2022-09-23T14:08:09.274Z,101243.22
2022-09-23T14:10:57.124Z,101241.63
2022-09-23T14:13:45.220Z,101244.75
2022-09-23T14:16:32.067Z,101234.22
2022-09-23T14:19:20.734Z,101239.63
2022-09-23T14:22:24.632Z,101238.09
2022-09-23T14:25:15.884Z,101232.06
2022-09-23T14:28:03.091Z,101239.84
2022-09-23T14:30:52.260Z,101228.75
2022-09-23T14:33:43.245Z,101227.28
2022-09-23T14:36:53.678Z,101223.25
2022-09-23T14:39:41.785Z,101215.75
2022-09-23T14:42:29.690Z,101204.19
2022-09-23T14:45:20.414Z,101209.41
2022-09-23T14:48:11.582Z,101202.19
2022-09-23T14:50:59.916Z,101195.66
2022-09-23T14:53:48.711Z,101205.50
2022-09-23T14:56:42.592Z,101199.88
2022-09-23T14:59:33.415Z,101204.06
2022-09-23T15:02:36.574Z,101200.31
2022-09-23T15:05:31.329Z,101204.66
2022-09-23T15:08:21.402Z,101198.38
2022-09-23T15:11:09.456Z,101197.06
2022-09-23T15:14:02.191Z,101197.25
2022-09-23T15:17:04.088Z,101191.81
2022-09-23T15:19:55.297Z,101198.19
2022-09-23T15:22:45.729Z,101197.41
2022-09-23T15:25:34.160Z,101199.56
2022-09-23T15:28:23.748Z,101193.03
2022-09-23T15:31:15.166Z,101189.88
2022-09-23T15:34:01.715Z,101200.16
2022-09-23T15:36:49.694Z,101194.53
2022-09-23T15:39:36.613Z,101196.59
2022-09-23T15:42:23.396Z,101196.06
2022-09-23T15:45:12.952Z,101195.53
2022-09-23T15:48:07.442Z,101195.59
2022-09-23T15:50:55.263Z,101197.72
2022-09-23T15:53:41.877Z,101191.66
2022-09-23T15:56:28.565Z,101192.69
2022-09-23T15:59:15.403Z,101198.28
2022-09-23T16:02:06.803Z,101160.19
2022-09-23T16:04:54.845Z,101193.25
2022-09-23T16:07:41.478Z,101186.25
2022-09-23T16:10:28.226Z,101179.34
2022-09-23T16:13:15.569Z,101176.84
2022-09-23T16:16:02.707Z,101183.34
2022-09-23T16:18:51.452Z,101176.47
2022-09-23T16:21:40.890Z,101173.25
2022-09-23T16:24:28.441Z,101178.84
2022-09-23T16:27:19.544Z,101176.34
2022-09-23T16:30:07.315Z,101181.97
2022-09-23T16:32:54.012Z,101183.13
2022-09-23T16:35:40.995Z,101173.63
2022-09-23T16:38:29.606Z,101181.03
2022-09-23T16:41:16.565Z,101185.72
2022-09-23T16:44:05.546Z,101178.91
2022-09-23T16:46:52.093Z,101176.63
2022-09-23T16:49:38.882Z,101181.22
2022-09-23T16:52:25.855Z,101182.22
2022-09-23T16:55:15.639Z,101176.31
2022-09-23T16:58:02.174Z,101172.88
2022-09-23T17:01:06.216Z,101169.47
2022-09-23T17:03:53.373Z,101167.84
2022-09-23T17:06:45.162Z,101167.19
2022-09-23T17:09:33.160Z,101163.88
2022-09-23T17:12:26.026Z,101161.34
2022-09-23T17:15:13.308Z,101153.44
2022-09-23T17:17:59.773Z,101158.81
2022-09-23T17:20:46.540Z,101152.81
2022-09-23T17:23:35.678Z,101152.94
2022-09-23T17:26:23.375Z,101147.72
2022-09-23T17:29:11.974Z,101143.31
2022-09-23T17:31:58.670Z,101152.28
2022-09-23T17:34:46.294Z,101135.69
2022-09-23T17:37:33.439Z,101140.16
2022-09-23T17:40:20.609Z,101148.16
2022-09-23T17:43:08.613Z,101138.59
2022-09-23T17:45:58.684Z,101141.28
2022-09-23T17:48:46.024Z,101141.44
2022-09-23T17:51:32.516Z,101139.88
2022-09-23T17:54:19.551Z,101140.81
2022-09-23T17:57:06.440Z,101154.22
2022-09-23T17:59:53.790Z,101163.13
2022-09-23T18:02:42.044Z,101152.63
2022-09-23T18:05:28.820Z,101157.22
2022-09-23T18:08:15.438Z,101150.38
2022-09-23T18:11:02.312Z,101147.00
2022-09-23T18:13:51.133Z,101158.56
2022-09-23T18:16:39.599Z,101160.50
2022-09-23T18:19:27.759Z,101155.38
2022-09-23T18:22:16.759Z,101159.94
2022-09-23T18:25:13.220Z,101157.44
2022-09-23T18:28:24.842Z,101154.13
2022-09-23T18:31:14.266Z,101151.59
2022-09-23T18:34:07.689Z,101153.56
2022-09-23T18:36:59.729Z,101142.22
2022-09-23T18:39:49.350Z,101139.63
2022-09-23T18:42:41.142Z,101144.16
2022-09-23T18:49:09.889Z,101145.38
2022-09-23T18:52:01.407Z,101147.25
2022-09-23T18:54:55.545Z,101152.59
2022-09-23T18:57:48.550Z,101147.34
2022-09-23T19:00:39.881Z,101148.38
2022-09-23T19:03:45.865Z,101144.06
2022-09-23T19:06:38.065Z,101137.97
2022-09-23T19:09:35.845Z,101144.16
2022-09-23T19:12:25.624Z,101144.28
2022-09-23T19:15:16.674Z,101140.88
2022-09-23T19:18:09.290Z,101148.03
2022-09-23T19:21:02.546Z,101142.81
2022-09-23T19:23:59.771Z,101147.34
2022-09-23T19:26:57.153Z,101142.16
2022-09-23T19:29:51.023Z,101144.06
2022-09-23T19:32:42.953Z,101143.31
2022-09-23T19:35:34.781Z,101142.47
2022-09-23T19:38:24.620Z,101140.72
2022-09-23T19:41:13.344Z,101144.38
2022-09-23T19:44:11.066Z,101140.97
2022-09-23T19:46:59.597Z,101136.63
2022-09-23T19:49:49.576Z,101134.06
2022-09-23T19:52:36.547Z,101125.25
2022-09-23T19:55:23.769Z,101119.28
2022-09-23T19:58:10.375Z,101125.41
2022-09-23T20:00:58.523Z,101134.25
2022-09-23T20:03:45.109Z,101127.25
2022-09-23T20:06:34.021Z,101131.66
2022-09-23T20:09:20.657Z,101129.91
2022-09-23T20:12:07.181Z,101133.44
2022-09-23T20:14:53.955Z,101129.06
2022-09-23T20:17:42.151Z,101136.13
2022-09-23T20:20:28.807Z,101127.31
2022-09-23T20:23:15.600Z,101122.97
2022-09-23T20:26:21.117Z,101124.78
2022-09-23T20:29:09.003Z,101128.31
2022-09-23T20:31:58.723Z,101123.97
2022-09-23T20:34:48.844Z,101118.69
2022-09-23T20:37:35.410Z,101122.22
2022-09-23T20:40:23.103Z,101117.84
2022-09-23T20:43:10.382Z,101112.59
2022-09-23T20:45:57.343Z,101114.38
2022-09-23T20:48:48.021Z,101116.19
2022-09-23T20:51:36.009Z,101110.09
2022-09-23T20:54:23.293Z,101115.44
2022-09-23T20:57:12.095Z,101111.09
2022-09-23T20:59:59.176Z,101118.13
2022-09-23T21:02:46.212Z,101114.69
2022-09-23T21:05:36.077Z,101106.84
2022-09-23T21:08:24.707Z,101103.34
2022-09-23T21:11:13.530Z,101107.78
2022-09-23T21:14:01.486Z,101101.66
2022-09-23T21:16:48.463Z,101103.50
2022-09-23T21:19:35.279Z,101099.19
2022-09-23T21:22:22.854Z,101098.34
2022-09-23T21:25:28.275Z,101100.16
2022-09-23T21:28:15.543Z,101098.44
2022-09-23T21:31:03.430Z,101090.56
2022-09-23T21:33:53.034Z,101095.84
2022-09-23T21:36:42.873Z,101095.00
2022-09-23T21:39:29.495Z,101087.03
2022-09-23T21:42:17.729Z,101089.69
2022-09-23T21:45:05.277Z,101094.00
2022-09-23T21:47:52.092Z,101081.69
2022-09-23T21:50:41.040Z,101080.00
2022-09-23T21:53:30.418Z,101070.38
2022-09-23T21:56:20.954Z,101068.56
2022-09-23T21:59:09.390Z,101069.47
2022-09-23T22:01:56.256Z,101067.72
2022-09-23T22:04:45.811Z,101072.13
2022-09-23T22:07:38.105Z,101071.22
2022-09-23T22:10:25.063Z,101071.22
2022-09-23T22:13:13.032Z,101068.50
2022-09-23T22:16:14.476Z,101059.72
2022-09-23T22:19:01.859Z,101069.31
2022-09-23T22:21:50.702Z,101071.00
2022-09-23T22:24:37.493Z,101064.88
2022-09-23T22:27:24.762Z,101064.81
2022-09-23T22:30:29.510Z,101065.66
2022-09-23T22:33:17.960Z,101062.13
2022-09-23T22:36:05.041Z,101063.03
2022-09-23T22:38:58.985Z,101058.63
2022-09-23T22:41:48.080Z,101055.94
2022-09-23T22:44:34.854Z,101063.84
2022-09-23T22:47:21.685Z,101055.91
2022-09-23T22:50:13.951Z,101045.38
2022-09-23T22:53:01.935Z,101051.56
2022-09-23T22:55:59.272Z,101048.03
2022-09-23T22:58:45.986Z,101048.03
2022-09-23T23:01:33.422Z,101057.69
2022-09-23T23:04:19.995Z,101051.50
2022-09-23T23:07:08.507Z,101051.47
2022-09-23T23:09:56.141Z,101041.81
2022-09-23T23:12:43.150Z,101038.31
2022-09-23T23:15:30.450Z,101042.66
2022-09-23T23:18:17.405Z,101038.25
2022-09-23T23:21:09.046Z,101036.44
2022-09-23T23:23:57.190Z,101035.56
2022-09-23T23:26:43.963Z,101024.13
2022-09-23T23:29:30.485Z,101030.25
2022-09-23T23:32:17.891Z,101031.97
2022-09-23T23:35:05.057Z,101027.50
2022-09-23T23:37:51.782Z,101026.59
2022-09-23T23:40:40.237Z,101029.22
2022-09-23T23:43:26.883Z,101024.78
2022-09-23T23:46:14.709Z,101023.00
2022-09-23T23:49:01.820Z,101022.09
2022-09-23T23:51:48.528Z,101019.34
2022-09-23T23:54:35.289Z,101018.41
2022-09-23T23:57:23.520Z,101017.47
